Athina P. — SY6082 — position and weather

sailwx.info

Track history (hours):
 
Tides and Currents Weather Stations Pressure Air Temp Water Temp Dewpoint Dewpoint Depression Visibility Wind Speed Wind Dir Waves Ship Positions

Athina P.

Last reported at 2016-Jul-22 11:19 UTC. Time now 2016-Jul-25 10:02 UTC.
Position N 37°58' E 023°32'.

Length 84 m; draft 1.7 m.

Type: Passenger vessel. MMSI: 237932700.

Date/timePositionNaut miles runAvg speedWind from/ knotsBaromVisibWave heightAir tempDewpointWater temp
2016-Jul-22 11:19N 37°58' E 023°32'0 0.0
2016-Jul-22 10:33N 37°58' E 023°32'0 0.0
2016-Jul-22 09:33N 37°58' E 023°32'0 0.0
2016-Jul-22 08:33N 37°58' E 023°32'0 0.0
2016-Jul-22 07:33N 37°58' E 023°32'0 0.0
2016-Jul-22 06:33N 37°58' E 023°32'0 0.0
2016-Jul-21 12:04N 37°58' E 023°32'0 0.0
2016-Jul-21 11:33N 37°58' E 023°32'0 0.0
2016-Jul-21 10:34N 37°58' E 023°32'0 0.0
2016-Jul-21 09:34N 37°58' E 023°32'0 0.0
2016-Jul-21 08:33N 37°58' E 023°32'0 0.0
2016-Jul-21 07:34N 37°58' E 023°32'0 0.0
2016-Jul-21 06:33N 37°58' E 023°32'0 0.0
2016-Jul-20 07:33N 37°58' E 023°32'2 1.7
2016-Jul-20 06:34N 37°57' E 023°34'3 3.4
2016-Jul-20 05:34N 37°57' E 023°38'0 0.0
2016-Jul-20 04:34N 37°57' E 023°38'0 0.0
2016-Jul-19 15:28N 37°57' E 023°38'0 0.0
2016-Jul-19 14:33N 37°57' E 023°38'0 0.0
2016-Jul-19 13:33N 37°57' E 023°38'0 0.0
2016-Jul-19 12:33N 37°57' E 023°38'0 0.0
2016-Jul-19 11:33N 37°57' E 023°38'0 0.0
2016-Jul-19 10:33N 37°57' E 023°38'0 0.0
2016-Jul-19 09:33N 37°57' E 023°38'0 0.0
2016-Jul-19 07:34N 37°57' E 023°38'0 0.0
2016-Jul-19 04:34N 37°57' E 023°38'0 0.0
2016-Jul-18 15:34N 37°57' E 023°38'0 0.0
2016-Jul-18 14:33N 37°57' E 023°38'0 0.0
2016-Jul-18 12:23N 37°57' E 023°38'0 0.0
2016-Jul-18 11:33N 37°57' E 023°38'0 0.0
2016-Jul-18 07:08N 37°57' E 023°38'0 0.0
2016-Jul-18 06:30N 37°57' E 023°38'1 0.8
2016-Jul-18 05:34N 37°56' E 023°37'4 3.7
2016-Jul-18 04:34N 37°58' E 023°33'1 0.1
2016-Jul-17 21:24N 37°58' E 023°32'0 0.2
2016-Jul-17 20:33N 37°58' E 023°32'1 1.2
2016-Jul-17 19:33N 37°58' E 023°33'0 0.0
2016-Jul-17 18:33N 37°58' E 023°33'1 1.2
2016-Jul-17 17:33N 37°58' E 023°32'0 0.0
2016-Jul-17 16:34N 37°58' E 023°32'0 0.0
2016-Jul-17 15:33N 37°58' E 023°32'0 0.0
2016-Jul-17 14:33N 37°58' E 023°32'0 0.0
2016-Jul-17 13:33N 37°58' E 023°32'1 1.3
2016-Jul-17 12:33N 37°58' E 023°33'1 1.2
2016-Jul-17 11:33N 37°58' E 023°32'0 0.0
2016-Jul-16 15:10N 37°58' E 023°32'0 0.4
2016-Jul-16 14:33N 37°58' E 023°32'1 1.1
2016-Jul-16 13:33N 37°58' E 023°33'1 1.2
2016-Jul-16 12:33N 37°58' E 023°32'1 1.2
2016-Jul-16 11:33N 37°58' E 023°33'1 1.2
2016-Jul-16 10:34N 37°58' E 023°32'0 0.0
2016-Jul-16 09:33N 37°58' E 023°32'1 1.2
2016-Jul-16 08:33N 37°58' E 023°33'0 0.0
2016-Jul-16 07:33N 37°58' E 023°33'1 1.2
2016-Jul-16 06:33N 37°58' E 023°32'0 0.0
2016-Jul-15 03:26N 37°58' E 023°32'0 0.0
2016-Jul-15 02:33N 37°58' E 023°32'1 1.2
2016-Jul-15 01:33N 37°58' E 023°33'1 1.2
2016-Jul-15 00:33N 37°58' E 023°32'1 1.3
2016-Jul-14 23:33N 37°58' E 023°33'1 1.3
2016-Jul-14 22:33N 37°58' E 023°32'1 1.3
2016-Jul-14 21:33N 37°58' E 023°33'1 1.2
2016-Jul-14 20:33N 37°58' E 023°32'0 0.1
2016-Jul-14 19:33N 37°58' E 023°32'0 0.0
2016-Jul-14 18:33N 37°58' E 023°32'0 0.0
2016-Jul-14 03:19N 37°58' E 023°32'0 0.0
2016-Jul-14 02:33N 37°58' E 023°32'1 1.2
2016-Jul-14 01:33N 37°58' E 023°33'0 0.2
2016-Jul-14 00:34N 37°58' E 023°33'1 1.0
2016-Jul-13 23:33N 37°58' E 023°32'1 1.0
2016-Jul-13 22:33N 37°58' E 023°33'1 1.0
2016-Jul-13 21:34N 37°58' E 023°32'1 1.1
2016-Jul-13 20:33N 37°58' E 023°33'1 1.1
2016-Jul-13 19:34N 37°58' E 023°32'0 0.2
2016-Jul-13 18:33N 37°58' E 023°32'0 0.0
2016-Jul-13 06:04N 37°58' E 023°32'0 0.0
2016-Jul-13 04:33N 37°58' E 023°32'0 0.0
2016-Jul-13 03:33N 37°58' E 023°32'1 1.1
2016-Jul-13 02:34N 37°58' E 023°33'1 0.9
2016-Jul-13 01:33N 37°58' E 023°32'1 1.0
2016-Jul-13 00:33N 37°58' E 023°33'1 1.0
2016-Jul-12 23:33N 37°58' E 023°32'1 1.0
2016-Jul-12 22:33N 37°58' E 023°33'1 1.1
2016-Jul-12 21:33N 37°58' E 023°32'1 1.1
2016-Jul-12 20:33N 37°58' E 023°33'0 0.2
2016-Jul-12 19:33N 37°58' E 023°33'1 1.3
2016-Jul-12 18:33N 37°58' E 023°32'  
Track history (hours):
 
Tides and Currents Weather Stations Pressure Air Temp Water Temp Dewpoint Dewpoint Depression Visibility Wind Speed Wind Dir Waves Ship Positions

Athina P.

Last reported at 2016-Jul-22 11:19 UTC. Time now 2016-Jul-25 10:02 UTC.
Position N 37°58' E 023°32'.

Length 84 m; draft 1.7 m.

Type: Passenger vessel. MMSI: 237932700.

Date/timePositionNaut miles runAvg speedWind from/ knotsBaromVisibWave heightAir tempDewpointWater temp
2016-Jul-22 11:19N 37°58' E 023°32'0 0.0
2016-Jul-22 10:33N 37°58' E 023°32'0 0.0
2016-Jul-22 09:33N 37°58' E 023°32'0 0.0
2016-Jul-22 08:33N 37°58' E 023°32'0 0.0
2016-Jul-22 07:33N 37°58' E 023°32'0 0.0
2016-Jul-22 06:33N 37°58' E 023°32'0 0.0
2016-Jul-21 12:04N 37°58' E 023°32'0 0.0
2016-Jul-21 11:33N 37°58' E 023°32'0 0.0
2016-Jul-21 10:34N 37°58' E 023°32'0 0.0
2016-Jul-21 09:34N 37°58' E 023°32'0 0.0
2016-Jul-21 08:33N 37°58' E 023°32'0 0.0
2016-Jul-21 07:34N 37°58' E 023°32'0 0.0
2016-Jul-21 06:33N 37°58' E 023°32'0 0.0
2016-Jul-20 07:33N 37°58' E 023°32'2 1.7
2016-Jul-20 06:34N 37°57' E 023°34'3 3.4
2016-Jul-20 05:34N 37°57' E 023°38'0 0.0
2016-Jul-20 04:34N 37°57' E 023°38'0 0.0
2016-Jul-19 15:28N 37°57' E 023°38'0 0.0
2016-Jul-19 14:33N 37°57' E 023°38'0 0.0
2016-Jul-19 13:33N 37°57' E 023°38'0 0.0
2016-Jul-19 12:33N 37°57' E 023°38'0 0.0
2016-Jul-19 11:33N 37°57' E 023°38'0 0.0
2016-Jul-19 10:33N 37°57' E 023°38'0 0.0
2016-Jul-19 09:33N 37°57' E 023°38'0 0.0
2016-Jul-19 07:34N 37°57' E 023°38'0 0.0
2016-Jul-19 04:34N 37°57' E 023°38'0 0.0
2016-Jul-18 15:34N 37°57' E 023°38'0 0.0
2016-Jul-18 14:33N 37°57' E 023°38'0 0.0
2016-Jul-18 12:23N 37°57' E 023°38'0 0.0
2016-Jul-18 11:33N 37°57' E 023°38'0 0.0
2016-Jul-18 07:08N 37°57' E 023°38'0 0.0
2016-Jul-18 06:30N 37°57' E 023°38'1 0.8
2016-Jul-18 05:34N 37°56' E 023°37'4 3.7
2016-Jul-18 04:34N 37°58' E 023°33'1 0.1
2016-Jul-17 21:24N 37°58' E 023°32'0 0.2
2016-Jul-17 20:33N 37°58' E 023°32'1 1.2
2016-Jul-17 19:33N 37°58' E 023°33'0 0.0
2016-Jul-17 18:33N 37°58' E 023°33'1 1.2
2016-Jul-17 17:33N 37°58' E 023°32'0 0.0
2016-Jul-17 16:34N 37°58' E 023°32'0 0.0
2016-Jul-17 15:33N 37°58' E 023°32'0 0.0
2016-Jul-17 14:33N 37°58' E 023°32'0 0.0
2016-Jul-17 13:33N 37°58' E 023°32'1 1.3
2016-Jul-17 12:33N 37°58' E 023°33'1 1.2
2016-Jul-17 11:33N 37°58' E 023°32'0 0.0
2016-Jul-16 15:10N 37°58' E 023°32'0 0.4
2016-Jul-16 14:33N 37°58' E 023°32'1 1.1
2016-Jul-16 13:33N 37°58' E 023°33'1 1.2
2016-Jul-16 12:33N 37°58' E 023°32'1 1.2
2016-Jul-16 11:33N 37°58' E 023°33'1 1.2
2016-Jul-16 10:34N 37°58' E 023°32'0 0.0
2016-Jul-16 09:33N 37°58' E 023°32'1 1.2
2016-Jul-16 08:33N 37°58' E 023°33'0 0.0
2016-Jul-16 07:33N 37°58' E 023°33'1 1.2
2016-Jul-16 06:33N 37°58' E 023°32'0 0.0
2016-Jul-15 03:26N 37°58' E 023°32'0 0.0
2016-Jul-15 02:33N 37°58' E 023°32'1 1.2
2016-Jul-15 01:33N 37°58' E 023°33'1 1.2
2016-Jul-15 00:33N 37°58' E 023°32'1 1.3
2016-Jul-14 23:33N 37°58' E 023°33'1 1.3
2016-Jul-14 22:33N 37°58' E 023°32'1 1.3
2016-Jul-14 21:33N 37°58' E 023°33'1 1.2
2016-Jul-14 20:33N 37°58' E 023°32'0 0.1
2016-Jul-14 19:33N 37°58' E 023°32'0 0.0
2016-Jul-14 18:33N 37°58' E 023°32'0 0.0
2016-Jul-14 03:19N 37°58' E 023°32'0 0.0
2016-Jul-14 02:33N 37°58' E 023°32'1 1.2
2016-Jul-14 01:33N 37°58' E 023°33'0 0.2
2016-Jul-14 00:34N 37°58' E 023°33'1 1.0
2016-Jul-13 23:33N 37°58' E 023°32'1 1.0
2016-Jul-13 22:33N 37°58' E 023°33'1 1.0
2016-Jul-13 21:34N 37°58' E 023°32'1 1.1
2016-Jul-13 20:33N 37°58' E 023°33'1 1.1
2016-Jul-13 19:34N 37°58' E 023°32'0 0.2
2016-Jul-13 18:33N 37°58' E 023°32'0 0.0
2016-Jul-13 06:04N 37°58' E 023°32'0 0.0
2016-Jul-13 04:33N 37°58' E 023°32'0 0.0
2016-Jul-13 03:33N 37°58' E 023°32'1 1.1
2016-Jul-13 02:34N 37°58' E 023°33'1 0.9
2016-Jul-13 01:33N 37°58' E 023°32'1 1.0
2016-Jul-13 00:33N 37°58' E 023°33'1 1.0
2016-Jul-12 23:33N 37°58' E 023°32'1 1.0
2016-Jul-12 22:33N 37°58' E 023°33'1 1.1
2016-Jul-12 21:33N 37°58' E 023°32'1 1.1
2016-Jul-12 20:33N 37°58' E 023°33'0 0.2
2016-Jul-12 19:33N 37°58' E 023°33'1 1.3
2016-Jul-12 18:33N 37°58' E 023°32'  

Dump ship's entire track history